Fort Stewart, Georgia
Current Conditions -  °F | °C
As of 3:58 AM on Monday 20 Oct 2014 (Local Time) from KLHW Reporting Station
Clear Clear  
Wind Chill: 48°   Ceiling: Unl
Heat Index: 48°   Visibility: 10mi
Dew Point: 46°   Wind: 1mph
Humidity: 94%   Direction: 360°N
Pressure: 30.09"   Gusts: NA
Location:  31.87°N, 81.61°W
Report Text: KLHW 200758Z AUTO 36001KT 10SM CLR 09/08 A3009 RMK AO2 SLP192 T00890080
Loading
Personal Weather Stations






























Interactive Weather Map
Tropical Storm Tracking
New forecast layout! Learn more

10-Day Weather Forecast

Advertisements
Track Severe Weather on mobile